createdAt,value
2017-07-10T00:00:14.329Z,0
2017-07-10T00:01:14.384Z,0
2017-07-10T00:02:14.424Z,0
2017-07-10T00:03:14.453Z,0
2017-07-10T00:04:14.506Z,0
2017-07-10T00:05:14.549Z,0
2017-07-10T00:06:14.588Z,0
2017-07-10T00:07:14.617Z,0
2017-07-10T00:08:14.671Z,0
2017-07-10T00:09:14.715Z,0
2017-07-10T00:10:14.755Z,0
2017-07-10T00:11:14.781Z,0
2017-07-10T00:12:14.834Z,0
2017-07-10T00:13:14.877Z,0
2017-07-10T00:14:14.910Z,0
2017-07-10T00:15:14.958Z,0
2017-07-10T00:16:14.986Z,0
2017-07-10T00:17:15.044Z,0
2017-07-10T00:18:15.084Z,0
2017-07-10T00:19:15.127Z,0
2017-07-10T00:20:15.149Z,0
2017-07-10T00:21:15.216Z,0
2017-07-10T00:22:15.233Z,0
2017-07-10T00:23:15.288Z,0
2017-07-10T00:24:15.331Z,0
2017-07-10T00:25:15.359Z,0
2017-07-10T00:26:15.411Z,0
2017-07-10T00:27:15.444Z,0
2017-07-10T00:28:15.488Z,0
2017-07-10T00:29:15.531Z,0
2017-07-10T00:30:15.563Z,0
2017-07-10T00:31:15.619Z,0
2017-07-10T00:32:15.659Z,0
2017-07-10T00:33:15.701Z,0
2017-07-10T00:34:15.727Z,0
2017-07-10T00:35:15.784Z,0
2017-07-10T00:36:15.821Z,0
2017-07-10T00:37:15.867Z,0
2017-07-10T00:38:15.891Z,0
2017-07-10T00:39:15.945Z,0
2017-07-10T00:40:15.988Z,0
2017-07-10T00:41:16.016Z,0
2017-07-10T00:42:16.104Z,0
2017-07-10T00:43:16.105Z,0
2017-07-10T00:44:16.140Z,0
2017-07-10T00:45:16.193Z,0
2017-07-10T00:46:16.237Z,0
2017-07-10T00:47:16.261Z,0
2017-07-10T00:48:16.316Z,0
2017-07-10T00:49:16.363Z,0
2017-07-10T00:50:16.397Z,0
2017-07-10T00:51:16.428Z,0
2017-07-10T00:52:16.478Z,0
2017-07-10T00:53:16.507Z,0
2017-07-10T00:54:16.563Z,0
2017-07-10T00:55:16.601Z,0
2017-07-10T00:56:16.646Z,0
2017-07-10T00:57:16.670Z,0
2017-07-10T00:58:16.717Z,0
2017-07-10T00:59:16.751Z,0
2017-07-10T01:00:16.791Z,0
2017-07-10T01:01:16.848Z,0
2017-07-10T01:02:16.875Z,0
2017-07-10T01:03:16.929Z,0
2017-07-10T01:04:16.971Z,0
2017-07-10T01:05:17.334Z,0
2017-07-10T01:06:17.055Z,0
2017-07-10T01:07:17.095Z,0
2017-07-10T01:08:17.122Z,0
2017-07-10T01:09:17.177Z,0
2017-07-10T01:10:17.216Z,0
2017-07-10T01:11:17.245Z,0
2017-07-10T01:12:17.302Z,0
2017-07-10T01:13:17.340Z,0
2017-07-10T01:14:17.375Z,0
2017-07-10T01:15:17.408Z,0
2017-07-10T01:16:17.464Z,0
2017-07-10T01:17:17.488Z,0
2017-07-10T01:18:17.541Z,0
2017-07-10T01:19:17.581Z,0
2017-07-10T01:20:17.623Z,0
2017-07-10T01:21:17.666Z,0
2017-07-10T01:22:17.691Z,0
2017-07-10T01:23:17.746Z,0
2017-07-10T01:24:17.777Z,0
2017-07-10T01:25:17.826Z,0
2017-07-10T01:26:17.855Z,0
2017-07-10T01:27:17.909Z,0
2017-07-10T01:28:17.945Z,0
2017-07-10T01:29:17.983Z,0
2017-07-10T01:30:18.033Z,0
2017-07-10T01:31:18.057Z,0
2017-07-10T01:32:18.112Z,0
2017-07-10T01:33:18.139Z,0
2017-07-10T01:34:18.191Z,0
2017-07-10T01:35:18.232Z,0
2017-07-10T01:36:18.264Z,0
2017-07-10T01:37:18.319Z,0
2017-07-10T01:38:18.342Z,0
2017-07-10T01:39:18.399Z,0
2017-07-10T01:40:18.436Z,0
2017-07-10T01:41:18.478Z,0
2017-07-10T01:42:18.509Z,0
2017-07-10T01:43:18.555Z,0
2017-07-10T01:44:18.600Z,0
2017-07-10T01:45:18.628Z,0
2017-07-10T01:46:18.678Z,0
2017-07-10T01:47:18.724Z,0
2017-07-10T01:48:18.754Z,0
2017-07-10T01:49:18.803Z,0
2017-07-10T01:50:18.832Z,0
2017-07-10T01:51:19.008Z,0
2017-07-10T01:52:18.926Z,0
2017-07-10T01:53:18.952Z,0
2017-07-10T01:54:19.009Z,0
2017-07-10T01:55:19.050Z,0
2017-07-10T01:56:19.076Z,0
2017-07-10T01:57:19.128Z,0
2017-07-10T01:58:19.169Z,0
2017-07-10T01:59:19.209Z,0
2017-07-10T02:00:19.234Z,0
2017-07-10T02:01:19.291Z,0
2017-07-10T02:02:19.640Z,0
2017-07-10T02:03:19.372Z,0
2017-07-10T02:04:19.399Z,0
2017-07-10T02:05:19.460Z,0
2017-07-10T02:06:19.493Z,0
2017-07-10T02:07:19.524Z,0
2017-07-10T02:08:19.575Z,0
2017-07-10T02:09:19.617Z,0
2017-07-10T02:10:19.654Z,0
2017-07-10T02:11:19.705Z,0
2017-07-10T02:12:19.723Z,0
2017-07-10T02:13:19.763Z,0
2017-07-10T02:14:20.124Z,0
2017-07-10T02:15:19.858Z,0
2017-07-10T02:16:19.900Z,0
2017-07-10T02:17:19.926Z,0
2017-07-10T02:18:19.981Z,0
2017-07-10T02:19:20.005Z,0
2017-07-10T02:20:20.058Z,0
2017-07-10T02:21:20.090Z,0
2017-07-10T02:22:20.139Z,0
2017-07-10T02:23:20.169Z,0
2017-07-10T02:24:20.210Z,0
2017-07-10T02:25:20.262Z,0
2017-07-10T02:26:20.301Z,0
2017-07-10T02:27:20.345Z,0
2017-07-10T02:28:20.377Z,0
2017-07-10T02:29:20.421Z,0
2017-07-10T02:30:20.449Z,0
2017-07-10T02:31:20.492Z,0
2017-07-10T02:32:20.548Z,0
2017-07-10T02:33:20.584Z,0
2017-07-10T02:34:20.611Z,0
2017-07-10T02:35:20.666Z,0
2017-07-10T02:36:20.708Z,0
2017-07-10T02:37:20.731Z,0
2017-07-10T02:38:20.786Z,0
2017-07-10T02:39:20.811Z,0
2017-07-10T02:40:20.867Z,0
2017-07-10T02:41:20.907Z,0
2017-07-10T02:42:20.937Z,0
2017-07-10T02:43:21.301Z,0
2017-07-10T02:44:21.025Z,0
2017-07-10T02:45:21.057Z,0
2017-07-10T02:46:21.106Z,0
2017-07-10T02:47:21.153Z,0
2017-07-10T02:48:21.176Z,0
2017-07-10T02:49:21.230Z,0
2017-07-10T02:50:21.269Z,0
2017-07-10T02:51:21.304Z,0
2017-07-10T02:52:21.667Z,0
2017-07-10T02:53:21.391Z,0
2017-07-10T02:54:21.419Z,0
2017-07-10T02:55:21.473Z,0
2017-07-10T02:56:21.500Z,0
2017-07-10T02:57:21.555Z,0
2017-07-10T02:58:21.586Z,0
2017-07-10T02:59:21.621Z,0
2017-07-10T03:00:21.675Z,0
2017-07-10T03:01:21.714Z,0
2017-07-10T03:02:21.780Z,0
2017-07-10T03:03:21.796Z,5
2017-07-10T03:04:21.822Z,5
2017-07-10T03:05:21.864Z,5
2017-07-10T03:06:21.904Z,5
2017-07-10T03:07:21.958Z,5
2017-07-10T03:08:21.984Z,5
2017-07-10T03:09:22.024Z,5
2017-07-10T03:10:22.078Z,5
2017-07-10T03:11:22.119Z,5
2017-07-10T03:12:22.143Z,10
2017-07-10T03:13:22.191Z,10
2017-07-10T03:14:22.237Z,10
2017-07-10T03:15:22.265Z,10
2017-07-10T03:16:22.321Z,10
2017-07-10T03:17:22.347Z,10
2017-07-10T03:18:22.402Z,10
2017-07-10T03:19:22.429Z,10
2017-07-10T03:20:22.483Z,10
2017-07-10T03:21:22.507Z,10
2017-07-10T03:22:22.563Z,10
2017-07-10T03:23:22.605Z,10
2017-07-10T03:24:22.632Z,10
2017-07-10T03:25:22.686Z,10
2017-07-10T03:26:22.709Z,10
2017-07-10T03:27:22.765Z,10
2017-07-10T03:28:22.796Z,10
2017-07-10T03:29:22.834Z,10
2017-07-10T03:30:23.204Z,10
2017-07-10T03:31:22.926Z,10
2017-07-10T03:32:22.959Z,10
2017-07-10T03:33:23.011Z,10
2017-07-10T03:34:23.034Z,10
2017-07-10T03:35:23.088Z,10
2017-07-10T03:36:23.116Z,10
2017-07-10T03:37:23.170Z,10
2017-07-10T03:38:23.210Z,10
2017-07-10T03:39:23.235Z,10
2017-07-10T03:40:23.290Z,10
2017-07-10T03:41:23.331Z,10
2017-07-10T03:42:23.370Z,10
2017-07-10T03:43:23.404Z,10
2017-07-10T03:44:23.441Z,15
2017-07-10T03:45:23.493Z,15
2017-07-10T03:46:23.535Z,15
2017-07-10T03:47:23.558Z,15
2017-07-10T03:48:23.616Z,20
2017-07-10T03:49:23.644Z,20
2017-07-10T03:50:23.694Z,20
2017-07-10T03:51:23.737Z,20
2017-07-10T03:52:23.774Z,20
2017-07-10T03:53:23.817Z,25
2017-07-10T03:54:23.843Z,25
2017-07-10T03:55:23.899Z,25
2017-07-10T03:56:23.942Z,25
2017-07-10T03:57:23.980Z,25
2017-07-10T03:58:24.016Z,25
2017-07-10T03:59:24.061Z,25
2017-07-10T04:00:24.102Z,25
2017-07-10T04:01:24.141Z,25
2017-07-10T04:02:24.487Z,30
2017-07-10T04:03:24.224Z,30
2017-07-10T04:04:24.251Z,30
2017-07-10T04:05:24.291Z,30
2017-07-10T04:06:24.346Z,30
2017-07-10T04:07:24.371Z,30
2017-07-10T04:08:24.428Z,30
2017-07-10T04:09:24.469Z,35
2017-07-10T04:10:24.496Z,35
2017-07-10T04:11:24.549Z,35
2017-07-10T04:12:24.589Z,35
2017-07-10T04:13:24.627Z,35
2017-07-10T04:14:24.661Z,40
2017-07-10T04:15:25.032Z,40
2017-07-10T04:16:24.739Z,40
2017-07-10T04:17:24.777Z,45
2017-07-10T04:18:24.822Z,45
2017-07-10T04:19:24.875Z,50
2017-07-10T04:20:24.915Z,50
2017-07-10T04:21:24.941Z,55
2017-07-10T04:22:24.995Z,60
2017-07-10T04:23:25.035Z,60
2017-07-10T04:24:25.076Z,60
2017-07-10T04:25:25.105Z,60
2017-07-10T04:26:25.161Z,65
2017-07-10T04:27:25.185Z,70
2017-07-10T04:28:25.236Z,75
2017-07-10T04:29:25.282Z,80
2017-07-10T04:30:25.324Z,85
2017-07-10T04:31:25.349Z,90
2017-07-10T04:32:25.404Z,95
2017-07-10T04:33:25.445Z,100
2017-07-10T04:34:25.468Z,105
2017-07-10T04:35:25.512Z,110
2017-07-10T04:36:25.562Z,120
2017-07-10T04:37:25.607Z,125
2017-07-10T04:38:25.636Z,155
2017-07-10T04:39:25.687Z,200
2017-07-10T04:40:25.720Z,160
2017-07-10T04:41:25.758Z,165
2017-07-10T04:42:25.816Z,210
2017-07-10T04:43:25.845Z,180
2017-07-10T04:44:25.886Z,175
2017-07-10T04:45:25.939Z,180
2017-07-10T04:46:25.978Z,225
2017-07-10T04:47:26.009Z,250
2017-07-10T04:48:26.057Z,220
2017-07-10T04:49:26.103Z,185
2017-07-10T04:50:26.131Z,170
2017-07-10T04:51:26.190Z,155
2017-07-10T04:52:26.228Z,150
2017-07-10T04:53:26.270Z,140
2017-07-10T04:54:26.295Z,140
2017-07-10T04:55:26.356Z,135
2017-07-10T04:56:26.393Z,130
2017-07-10T04:57:26.419Z,140
2017-07-10T04:58:26.473Z,140
2017-07-10T04:59:26.516Z,130
2017-07-10T05:00:26.544Z,135
2017-07-10T05:01:26.600Z,140
2017-07-10T05:02:26.642Z,145
2017-07-10T05:03:26.671Z,150
2017-07-10T05:04:26.717Z,155
2017-07-10T05:05:26.767Z,160
2017-07-10T05:06:26.814Z,170
2017-07-10T05:07:26.861Z,180
2017-07-10T05:08:26.893Z,185
2017-07-10T05:09:26.925Z,190
2017-07-10T05:10:26.977Z,195
2017-07-10T05:11:27.005Z,205
2017-07-10T05:12:27.283Z,210
2017-07-10T05:13:27.104Z,220
2017-07-10T05:14:27.138Z,225
2017-07-10T05:15:27.176Z,235
2017-07-10T05:16:27.215Z,245
2017-07-10T05:17:27.268Z,245
2017-07-10T05:18:27.298Z,260
2017-07-10T05:19:27.353Z,260
2017-07-10T05:20:27.381Z,255
2017-07-10T05:21:27.436Z,225
2017-07-10T05:22:27.477Z,190
2017-07-10T05:23:27.509Z,165
2017-07-10T05:24:27.563Z,155
2017-07-10T05:25:27.593Z,145
2017-07-10T05:26:27.650Z,125
2017-07-10T05:27:27.689Z,115
2017-07-10T05:28:27.733Z,100
2017-07-10T05:29:27.770Z,90
2017-07-10T05:30:27.818Z,85
2017-07-10T05:31:27.859Z,70
2017-07-10T05:32:27.899Z,60
2017-07-10T05:33:27.942Z,55
2017-07-10T05:34:27.970Z,50
2017-07-10T05:35:28.028Z,45
2017-07-10T05:36:28.066Z,40
2017-07-10T05:37:28.161Z,35
2017-07-10T05:38:28.198Z,35
2017-07-10T05:39:28.195Z,35
2017-07-10T05:40:28.218Z,35
2017-07-10T05:41:28.273Z,35
2017-07-10T05:42:28.304Z,35
2017-07-10T05:43:28.353Z,30
2017-07-10T05:44:28.392Z,30
2017-07-10T05:45:28.742Z,25
2017-07-10T05:46:28.481Z,25
2017-07-10T05:47:28.510Z,25
2017-07-10T05:48:28.552Z,30
2017-07-10T05:49:28.610Z,30
2017-07-10T05:50:28.639Z,30
2017-07-10T05:51:28.676Z,30
2017-07-10T05:52:28.733Z,30
2017-07-10T05:53:28.761Z,30
2017-07-10T05:54:28.815Z,30
2017-07-10T05:55:28.842Z,35
2017-07-10T05:56:28.898Z,35
2017-07-10T05:57:28.937Z,45
2017-07-10T05:58:28.967Z,55
2017-07-10T05:59:29.014Z,65
2017-07-10T06:00:29.063Z,70
2017-07-10T06:01:29.089Z,75
2017-07-10T06:02:29.134Z,70
2017-07-10T06:03:29.187Z,65
2017-07-10T06:04:29.217Z,55
2017-07-10T06:05:29.297Z,45
2017-07-10T06:06:29.309Z,40
2017-07-10T06:07:29.339Z,35
2017-07-10T06:08:29.396Z,35
2017-07-10T06:09:29.470Z,30
2017-07-10T06:10:29.476Z,30
2017-07-10T06:11:29.506Z,30
2017-07-10T06:12:29.568Z,45
2017-07-10T06:13:29.601Z,75
2017-07-10T06:14:29.635Z,105
2017-07-10T06:15:29.672Z,130
2017-07-10T06:16:29.722Z,140
2017-07-10T06:17:29.754Z,155
2017-07-10T06:18:30.134Z,175
2017-07-10T06:19:29.847Z,165
2017-07-10T06:20:29.876Z,150
2017-07-10T06:21:29.917Z,145
2017-07-10T06:22:29.974Z,145
2017-07-10T06:23:29.999Z,160
2017-07-10T06:24:30.055Z,110
2017-07-10T06:25:30.104Z,80
2017-07-10T06:26:30.137Z,65
2017-07-10T06:27:30.388Z,55
2017-07-10T06:28:30.210Z,55
2017-07-10T06:29:30.261Z,50
2017-07-10T06:30:30.306Z,40
2017-07-10T06:31:30.349Z,35
2017-07-10T06:32:30.378Z,30
2017-07-10T06:33:30.434Z,25
2017-07-10T06:34:30.456Z,25
2017-07-10T06:35:30.514Z,25
2017-07-10T06:36:30.542Z,20
2017-07-10T06:37:30.600Z,20
2017-07-10T06:38:30.641Z,20
2017-07-10T06:39:30.665Z,20
2017-07-10T06:40:30.710Z,20
2017-07-10T06:41:30.749Z,20
2017-07-10T06:42:30.806Z,15
2017-07-10T06:43:30.844Z,15
2017-07-10T06:44:30.881Z,20
2017-07-10T06:45:30.920Z,25
2017-07-10T06:46:30.995Z,30
2017-07-10T06:47:31.012Z,30
2017-07-10T06:48:31.104Z,30
2017-07-10T06:49:31.080Z,25
2017-07-10T06:50:31.138Z,25
2017-07-10T06:51:31.177Z,25
2017-07-10T06:52:31.204Z,25
2017-07-10T06:53:31.260Z,25
2017-07-10T06:54:31.289Z,20
2017-07-10T06:55:31.331Z,25
2017-07-10T06:56:31.418Z,25
2017-07-10T06:57:31.419Z,25
2017-07-10T06:58:31.454Z,25
2017-07-10T06:59:31.503Z,30
2017-07-10T07:00:31.867Z,40
2017-07-10T07:01:31.576Z,45
2017-07-10T07:02:31.629Z,50
2017-07-10T07:03:31.670Z,50
2017-07-10T07:04:31.708Z,45
2017-07-10T07:05:31.757Z,40
2017-07-10T07:06:31.802Z,30
2017-07-10T07:07:31.834Z,20
2017-07-10T07:08:32.095Z,15
2017-07-10T07:09:31.904Z,15
2017-07-10T07:10:31.964Z,15
2017-07-10T07:11:31.984Z,20
2017-07-10T07:12:32.037Z,25
2017-07-10T07:13:32.112Z,25
2017-07-10T07:14:32.106Z,25
2017-07-10T07:15:32.157Z,25
2017-07-10T07:16:32.202Z,30
2017-07-10T07:17:32.232Z,35
2017-07-10T07:18:32.283Z,45
2017-07-10T07:19:32.315Z,50
2017-07-10T07:20:32.367Z,50
2017-07-10T07:21:32.407Z,50
2017-07-10T07:22:32.449Z,55
2017-07-10T07:23:32.489Z,60
2017-07-10T07:24:32.530Z,65
2017-07-10T07:25:32.571Z,75
2017-07-10T07:26:32.611Z,75
2017-07-10T07:27:32.656Z,75
2017-07-10T07:28:32.682Z,70
2017-07-10T07:29:32.737Z,70
2017-07-10T07:30:32.778Z,70
2017-07-10T07:31:32.815Z,70
2017-07-10T07:32:32.847Z,75
2017-07-10T07:33:32.898Z,85
2017-07-10T07:34:32.930Z,95
2017-07-10T07:35:32.984Z,105
2017-07-10T07:36:33.010Z,115
2017-07-10T07:37:33.076Z,130
2017-07-10T07:38:33.093Z,145
2017-07-10T07:39:33.146Z,170
2017-07-10T07:40:33.193Z,180
2017-07-10T07:41:33.231Z,190
2017-07-10T07:42:33.264Z,210
2017-07-10T07:43:33.304Z,240
2017-07-10T07:44:33.359Z,255
2017-07-10T07:45:33.395Z,300
2017-07-10T07:46:33.441Z,315
2017-07-10T07:47:33.470Z,305
2017-07-10T07:48:33.525Z,240
2017-07-10T07:49:33.553Z,215
2017-07-10T07:50:33.593Z,235
2017-07-10T07:51:33.633Z,335
2017-07-10T07:52:33.678Z,400
2017-07-10T07:53:34.054Z,360
2017-07-10T07:54:33.765Z,340
2017-07-10T07:55:33.815Z,335
2017-07-10T07:56:33.858Z,435
2017-07-10T07:57:33.891Z,370
2017-07-10T07:58:33.946Z,320
2017-07-10T07:59:33.991Z,295
2017-07-10T08:00:34.018Z,295
2017-07-10T08:01:34.068Z,375
2017-07-10T08:02:34.114Z,305
2017-07-10T08:03:34.147Z,310
2017-07-10T08:04:34.190Z,335
2017-07-10T08:05:34.245Z,395
2017-07-10T08:06:34.277Z,470
2017-07-10T08:07:34.335Z,405
2017-07-10T08:08:34.374Z,410
2017-07-10T08:09:34.406Z,545
2017-07-10T08:10:34.462Z,350
2017-07-10T08:11:34.493Z,305
2017-07-10T08:12:34.552Z,285
2017-07-10T08:13:34.595Z,320
2017-07-10T08:14:34.624Z,330
2017-07-10T08:15:34.679Z,320
2017-07-10T08:16:35.045Z,315
2017-07-10T08:17:34.771Z,300
2017-07-10T08:18:34.812Z,280
2017-07-10T08:19:34.857Z,265
2017-07-10T08:20:34.898Z,255
2017-07-10T08:21:34.937Z,225
2017-07-10T08:22:34.989Z,230
2017-07-10T08:23:35.058Z,280
2017-07-10T08:24:35.061Z,285
2017-07-10T08:25:35.106Z,290
2017-07-10T08:26:35.163Z,335
2017-07-10T08:27:35.205Z,315
2017-07-10T08:28:35.248Z,340
2017-07-10T08:29:35.281Z,405
2017-07-10T08:30:35.338Z,470
2017-07-10T08:31:35.380Z,480
2017-07-10T08:32:35.419Z,545
2017-07-10T08:33:35.470Z,605
2017-07-10T08:34:35.818Z,710
2017-07-10T08:35:35.553Z,865
2017-07-10T08:36:35.602Z,995
2017-07-10T08:37:35.633Z,1290
2017-07-10T08:38:35.690Z,845
2017-07-10T08:39:35.723Z,885
2017-07-10T08:40:35.767Z,905
2017-07-10T08:41:35.828Z,1100
2017-07-10T08:42:35.857Z,890
2017-07-10T08:43:35.919Z,750
2017-07-10T08:44:35.951Z,690
2017-07-10T08:45:36.009Z,600
2017-07-10T08:46:36.041Z,550
2017-07-10T08:47:36.092Z,535
2017-07-10T08:48:36.147Z,515
2017-07-10T08:49:36.246Z,485
2017-07-10T08:50:36.225Z,460
2017-07-10T08:51:36.271Z,435
2017-07-10T08:52:36.328Z,420
2017-07-10T08:53:36.676Z,410
2017-07-10T08:54:36.420Z,395
2017-07-10T08:55:36.465Z,380
2017-07-10T08:56:36.513Z,370
2017-07-10T08:57:36.544Z,360
2017-07-10T08:58:36.601Z,355
2017-07-10T08:59:36.636Z,355
2017-07-10T09:00:36.682Z,355
2017-07-10T09:01:36.727Z,360
2017-07-10T09:02:36.783Z,370
2017-07-10T09:03:36.829Z,385
2017-07-10T09:04:36.872Z,400
2017-07-10T09:05:36.921Z,415
2017-07-10T09:06:36.967Z,435
2017-07-10T09:07:36.997Z,455
2017-07-10T09:08:37.052Z,495
2017-07-10T09:09:37.085Z,535
2017-07-10T09:10:37.147Z,700
2017-07-10T09:11:37.189Z,785
2017-07-10T09:12:37.222Z,765
2017-07-10T09:13:37.280Z,800
2017-07-10T09:14:37.325Z,795
2017-07-10T09:15:37.370Z,780
2017-07-10T09:16:37.419Z,1185
2017-07-10T09:17:37.461Z,1140
2017-07-10T09:18:37.504Z,880
2017-07-10T09:19:37.541Z,825
2017-07-10T09:20:37.598Z,755
2017-07-10T09:21:37.646Z,825
2017-07-10T09:22:37.677Z,965
2017-07-10T09:23:37.736Z,1395
2017-07-10T09:24:37.785Z,1875
2017-07-10T09:25:37.831Z,1610
2017-07-10T09:26:37.864Z,1175
2017-07-10T09:27:37.923Z,1215
2017-07-10T09:28:37.974Z,995
2017-07-10T09:29:38.009Z,885
2017-07-10T09:30:38.067Z,1830
2017-07-10T09:31:38.113Z,2050
2017-07-10T09:32:38.152Z,2300
2017-07-10T09:33:38.206Z,1505
2017-07-10T09:34:38.282Z,1215
2017-07-10T09:35:38.310Z,1715
2017-07-10T09:36:38.348Z,1620
2017-07-10T09:37:38.404Z,1730
2017-07-10T09:38:38.459Z,1575
2017-07-10T09:39:38.493Z,1705
2017-07-10T09:40:38.558Z,2595
2017-07-10T09:41:38.591Z,2905
2017-07-10T09:42:38.656Z,2820
2017-07-10T09:43:38.691Z,2660
2017-07-10T09:44:38.749Z,2710
2017-07-10T09:45:38.809Z,2615
2017-07-10T09:46:38.864Z,2555
2017-07-10T09:47:38.900Z,2685
2017-07-10T09:48:38.954Z,1980
2017-07-10T09:49:39.014Z,1925
2017-07-10T09:50:39.076Z,3000
2017-07-10T09:51:39.129Z,3065
2017-07-10T09:52:39.187Z,3050
2017-07-10T09:53:39.227Z,2510
2017-07-10T09:54:39.299Z,2935
2017-07-10T09:55:39.352Z,2825
2017-07-10T09:56:39.406Z,2745
2017-07-10T09:57:39.470Z,2540
2017-07-10T09:58:39.506Z,2700
2017-07-10T09:59:39.574Z,2665
2017-07-10T10:00:39.989Z,2890
2017-07-10T10:01:39.691Z,1890
2017-07-10T10:02:39.747Z,2665
2017-07-10T10:03:39.795Z,2665
2017-07-10T10:04:39.847Z,2500
2017-07-10T10:05:39.914Z,2185
2017-07-10T10:06:39.978Z,1870
2017-07-10T10:07:40.076Z,1465
2017-07-10T10:08:40.093Z,1295
2017-07-10T10:09:40.136Z,1350
2017-07-10T10:10:40.209Z,1230
2017-07-10T10:11:40.262Z,1270
2017-07-10T10:12:40.322Z,1055
2017-07-10T10:13:40.378Z,855
2017-07-10T10:14:40.433Z,975
2017-07-10T10:15:40.475Z,1005
2017-07-10T10:16:40.543Z,1430
2017-07-10T10:17:40.582Z,1265
2017-07-10T10:18:40.652Z,1320
2017-07-10T10:19:40.703Z,1220
2017-07-10T10:20:40.752Z,2150
2017-07-10T10:21:40.816Z,2720
2017-07-10T10:22:40.857Z,2710
2017-07-10T10:23:40.928Z,1790
2017-07-10T10:24:40.982Z,2105
2017-07-10T10:25:41.035Z,3125
2017-07-10T10:26:41.078Z,2100
2017-07-10T10:27:41.148Z,2925
2017-07-10T10:28:41.201Z,2880
2017-07-10T10:29:41.257Z,2690
2017-07-10T10:30:41.299Z,2700
2017-07-10T10:31:41.368Z,2710
2017-07-10T10:32:41.425Z,2620
2017-07-10T10:33:41.466Z,2555
2017-07-10T10:34:41.539Z,2385
2017-07-10T10:35:41.594Z,2365
2017-07-10T10:36:41.652Z,2325
2017-07-10T10:37:41.701Z,2250
2017-07-10T10:38:41.755Z,2165
2017-07-10T10:39:41.835Z,2190
2017-07-10T10:40:42.198Z,2160
2017-07-10T10:41:41.940Z,2245
2017-07-10T10:42:41.986Z,2330
2017-07-10T10:43:42.057Z,2530
2017-07-10T10:44:42.105Z,2605
2017-07-10T10:45:42.175Z,2720
2017-07-10T10:46:42.230Z,2840
2017-07-10T10:47:42.277Z,505
2017-07-10T10:48:42.351Z,2580
2017-07-10T10:49:42.400Z,765
2017-07-10T10:50:42.456Z,2555
2017-07-10T10:51:42.843Z,585
2017-07-10T10:52:42.596Z,485
2017-07-10T10:53:42.624Z,425
2017-07-10T10:54:42.698Z,2395
2017-07-10T10:55:42.754Z,2880
2017-07-10T10:56:42.809Z,2895
2017-07-10T10:57:42.858Z,2445
2017-07-10T10:58:42.906Z,785
2017-07-10T10:59:42.966Z,2935
2017-07-10T11:00:43.025Z,605
2017-07-10T11:01:43.079Z,555
2017-07-10T11:02:43.145Z,490
2017-07-10T11:03:43.188Z,445
2017-07-10T11:04:43.243Z,575
2017-07-10T11:05:43.327Z,700
2017-07-10T11:06:43.369Z,700
2017-07-10T11:07:43.406Z,690
2017-07-10T11:08:43.798Z,660
2017-07-10T11:09:43.832Z,560
2017-07-10T11:10:43.569Z,535
2017-07-10T11:11:43.622Z,480
2017-07-10T11:12:43.678Z,550
2017-07-10T11:13:43.746Z,510
2017-07-10T11:14:43.783Z,430
2017-07-10T11:15:44.154Z,405
2017-07-10T11:16:43.902Z,370
2017-07-10T11:17:43.942Z,340
2017-07-10T11:18:44.307Z,325
2017-07-10T11:19:44.041Z,305
2017-07-10T11:20:44.097Z,290
2017-07-10T11:21:44.146Z,280
2017-07-10T11:22:44.200Z,265
2017-07-10T11:23:44.250Z,265
2017-07-10T11:24:44.323Z,265
2017-07-10T11:25:44.370Z,280
2017-07-10T11:26:44.401Z,300
2017-07-10T11:27:44.472Z,335
2017-07-10T11:28:44.501Z,330
2017-07-10T11:29:44.872Z,330
2017-07-10T11:30:44.601Z,370
2017-07-10T11:31:44.673Z,415
2017-07-10T11:32:44.696Z,430
2017-07-10T11:33:44.750Z,430
2017-07-10T11:34:44.794Z,415
2017-07-10T11:35:44.843Z,400
2017-07-10T11:36:44.895Z,440
2017-07-10T11:37:45.259Z,480
2017-07-10T11:38:44.992Z,505
2017-07-10T11:39:45.063Z,520
2017-07-10T11:40:45.117Z,490
2017-07-10T11:41:45.141Z,470
2017-07-10T11:42:45.209Z,450
2017-07-10T11:43:45.235Z,440
2017-07-10T11:44:45.286Z,430
2017-07-10T11:45:45.329Z,440
2017-07-10T11:46:45.379Z,460
2017-07-10T11:47:45.428Z,475
2017-07-10T11:48:45.492Z,490
2017-07-10T11:49:45.551Z,495
2017-07-10T11:50:45.572Z,480
2017-07-10T11:51:45.640Z,460
2017-07-10T11:52:45.682Z,445
2017-07-10T11:53:45.717Z,435
2017-07-10T11:54:45.767Z,430
2017-07-10T11:55:45.832Z,440
2017-07-10T11:56:45.866Z,435
2017-07-10T11:57:45.927Z,425
2017-07-10T11:58:45.961Z,435
2017-07-10T11:59:46.024Z,445
2017-07-10T12:00:46.076Z,450
2017-07-10T12:01:46.118Z,485
2017-07-10T12:02:46.498Z,500
2017-07-10T12:03:46.206Z,505
2017-07-10T12:04:46.249Z,490
2017-07-10T12:05:46.299Z,475
2017-07-10T12:06:46.364Z,460
2017-07-10T12:07:46.408Z,460
2017-07-10T12:08:46.443Z,460
2017-07-10T12:09:46.506Z,470
2017-07-10T12:10:46.542Z,470
2017-07-10T12:11:46.604Z,470
2017-07-10T12:12:46.653Z,455
2017-07-10T12:13:46.685Z,440
2017-07-10T12:14:46.748Z,450
2017-07-10T12:15:46.798Z,460
2017-07-10T12:16:47.165Z,470
2017-07-10T12:17:46.897Z,445
2017-07-10T12:18:46.941Z,425
2017-07-10T12:19:46.991Z,385
2017-07-10T12:20:47.042Z,350
2017-07-10T12:21:47.408Z,325
2017-07-10T12:22:47.133Z,295
2017-07-10T12:23:47.183Z,265
2017-07-10T12:24:47.218Z,245
2017-07-10T12:25:47.267Z,225
2017-07-10T12:26:47.327Z,210
2017-07-10T12:27:47.358Z,195
2017-07-10T12:28:47.739Z,185
2017-07-10T12:29:47.471Z,175
2017-07-10T12:30:47.505Z,165
2017-07-10T12:31:47.565Z,160
2017-07-10T12:32:47.611Z,150
2017-07-10T12:33:47.646Z,140
2017-07-10T12:34:47.692Z,130
2017-07-10T12:35:47.754Z,125
2017-07-10T12:36:47.801Z,120
2017-07-10T12:37:47.853Z,120
2017-07-10T12:38:47.891Z,115
2017-07-10T12:39:47.927Z,115
2017-07-10T12:40:47.977Z,115
2017-07-10T12:41:48.019Z,115
2017-07-10T12:42:48.069Z,120
2017-07-10T12:43:48.131Z,120
2017-07-10T12:44:48.158Z,125
2017-07-10T12:45:48.217Z,130
2017-07-10T12:46:48.268Z,145
2017-07-10T12:47:48.320Z,150
2017-07-10T12:48:48.351Z,165
2017-07-10T12:49:48.393Z,195
2017-07-10T12:50:48.453Z,240
2017-07-10T12:51:48.498Z,270
2017-07-10T12:52:48.543Z,300
2017-07-10T12:53:48.589Z,325
2017-07-10T12:54:48.635Z,340
2017-07-10T12:55:48.670Z,335
2017-07-10T12:56:48.728Z,310
2017-07-10T12:57:48.763Z,300
2017-07-10T12:58:48.821Z,275
2017-07-10T12:59:48.872Z,255
2017-07-10T13:00:48.915Z,225
2017-07-10T13:01:48.949Z,210
2017-07-10T13:02:48.995Z,190
2017-07-10T13:03:49.054Z,190
2017-07-10T13:04:49.099Z,190
2017-07-10T13:05:49.149Z,195
2017-07-10T13:06:49.181Z,200
2017-07-10T13:07:49.222Z,190
2017-07-10T13:08:49.283Z,175
2017-07-10T13:09:49.330Z,160
2017-07-10T13:10:49.363Z,150
2017-07-10T13:11:49.411Z,150
2017-07-10T13:12:49.456Z,155
2017-07-10T13:13:49.516Z,160
2017-07-10T13:14:49.548Z,175
2017-07-10T13:15:49.611Z,175
2017-07-10T13:16:49.641Z,180
2017-07-10T13:17:49.707Z,190
2017-07-10T13:18:49.737Z,195
2017-07-10T13:19:49.791Z,215
2017-07-10T13:20:49.836Z,230
2017-07-10T13:21:49.871Z,230
2017-07-10T13:22:49.931Z,240
2017-07-10T13:23:49.975Z,245
2017-07-10T13:24:50.016Z,235
2017-07-10T13:25:50.056Z,230
2017-07-10T13:26:50.104Z,220
2017-07-10T13:27:50.162Z,215
2017-07-10T13:28:50.197Z,200
2017-07-10T13:29:50.253Z,185
2017-07-10T13:30:50.288Z,180
2017-07-10T13:31:50.332Z,185
2017-07-10T13:32:50.392Z,195
2017-07-10T13:33:50.426Z,190
2017-07-10T13:34:50.473Z,185
2017-07-10T13:35:50.514Z,180
2017-07-10T13:36:50.575Z,195
2017-07-10T13:37:50.621Z,200
2017-07-10T13:38:50.656Z,185
2017-07-10T13:39:50.702Z,175
2017-07-10T13:40:50.757Z,165
2017-07-10T13:41:50.790Z,160
2017-07-10T13:42:50.854Z,155
2017-07-10T13:43:50.885Z,150
2017-07-10T13:44:50.938Z,145
2017-07-10T13:45:50.969Z,145
2017-07-10T13:46:51.016Z,140
2017-07-10T13:47:51.076Z,145
2017-07-10T13:48:51.111Z,145
2017-07-10T13:49:51.152Z,145
2017-07-10T13:50:51.212Z,135
2017-07-10T13:51:51.257Z,145
2017-07-10T13:52:51.309Z,140
2017-07-10T13:53:51.339Z,145
2017-07-10T13:54:51.699Z,150
2017-07-10T13:55:51.433Z,160
2017-07-10T13:56:51.486Z,175
2017-07-10T13:57:51.521Z,185
2017-07-10T13:58:51.562Z,185
2017-07-10T13:59:51.623Z,190
2017-07-10T14:00:51.654Z,195
2017-07-10T14:01:51.702Z,205
2017-07-10T14:02:51.761Z,220